TimeEDT,TemperatureF,Dew PointF,Humidity,Sea Level PressureIn,VisibilityMPH,Wind Direction,Wind SpeedMPH,Gust SpeedMPH,PrecipitationIn,Events,Conditions,WindDirDegrees,DateUTC
12:51 AM,75.0,64.0,69,29.93,10.0,WSW,10.4,-,N/A,,Mostly Cloudy,240,2013-08-03 04:51:00
1:51 AM,72.0,64.0,76,29.91,10.0,SW,10.4,-,N/A,,Mostly Cloudy,230,2013-08-03 05:51:00
2:51 AM,72.0,62.1,71,29.90,10.0,WSW,9.2,-,N/A,,Mostly Cloudy,250,2013-08-03 06:51:00
3:51 AM,73.0,60.1,64,29.88,10.0,WSW,9.2,-,N/A,,Mostly Cloudy,250,2013-08-03 07:51:00
4:51 AM,73.0,63.0,71,29.90,10.0,SW,10.4,-,N/A,,Mostly Cloudy,220,2013-08-03 08:51:00
5:51 AM,72.0,62.1,71,29.91,10.0,SW,6.9,-,N/A,,Mostly Cloudy,230,2013-08-03 09:51:00
6:51 AM,73.0,63.0,71,29.91,10.0,SW,6.9,-,N/A,,Overcast,220,2013-08-03 10:51:00
7:51 AM,75.0,64.9,71,29.91,10.0,West,8.1,-,0.00,,Overcast,270,2013-08-03 11:51:00
8:51 AM,75.0,60.1,60,29.92,10.0,West,11.5,-,0.00,Rain,Light Rain,280,2013-08-03 12:51:00
9:51 AM,73.9,59.0,59,29.92,10.0,West,10.4,-,0.00,,Overcast,270,2013-08-03 13:51:00
10:51 AM,72.0,62.1,71,29.93,10.0,West,12.7,-,0.00,Rain,Light Rain,260,2013-08-03 14:51:00
11:51 AM,72.0,64.0,76,29.93,10.0,West,10.4,-,0.00,Rain,Light Rain,280,2013-08-03 15:51:00
12:51 PM,72.0,64.0,76,29.92,10.0,West,10.4,-,0.00,,Overcast,260,2013-08-03 16:51:00
1:51 PM,73.0,66.0,79,29.91,10.0,SW,6.9,-,0.00,,Mostly Cloudy,230,2013-08-03 17:51:00
2:51 PM,75.0,64.9,71,29.91,10.0,WSW,17.3,-,N/A,,Mostly Cloudy,250,2013-08-03 18:51:00
3:51 PM,77.0,66.0,69,29.89,10.0,WSW,17.3,-,N/A,,Mostly Cloudy,240,2013-08-03 19:51:00
4:51 PM,75.9,64.9,69,29.86,10.0,SW,17.3,-,N/A,,Mostly Cloudy,220,2013-08-03 20:51:00
5:51 PM,77.0,66.0,69,29.87,10.0,WSW,17.3,-,N/A,,Mostly Cloudy,240,2013-08-03 21:51:00
6:51 PM,75.9,66.0,71,29.88,10.0,WSW,15.0,-,N/A,,Mostly Cloudy,250,2013-08-03 22:51:00
7:51 PM,73.9,64.9,73,29.88,10.0,SW,16.1,-,N/A,,Scattered Clouds,230,2013-08-03 23:51:00
8:51 PM,73.0,64.9,76,29.89,10.0,WSW,12.7,-,N/A,,Mostly Cloudy,250,2013-08-04 00:51:00
9:51 PM,73.9,64.0,71,29.90,10.0,WSW,11.5,-,N/A,,Mostly Cloudy,250,2013-08-04 01:51:00
10:51 PM,73.0,64.9,76,29.89,10.0,WSW,9.2,-,N/A,,Scattered Clouds,250,2013-08-04 02:51:00
11:51 PM,72.0,64.9,78,29.89,10.0,West,8.1,-,N/A,,Scattered Clouds,260,2013-08-04 03:51:00